Time;durP1;ratioP1;P1;durP2;ratioP2;P2;SDS_P1;SDS_P2;PMS_P1;PMS_P2;Temp;Humidity;BMP_temperature;BMP_pressure;BME280_temperature;BME280_humidity;BME280_pressure;Samples;Min_cycle;Max_cycle;Signal;HPM_P1;HPM_P2
2023/07/08 00:00:37;;;;;;;;;;;19.30;1.00;;;;;;5071306;28;19981;-76
2023/07/08 00:03:03;;;;;;;;;;;19.30;1.00;;;;;;5066765;28;20317;-75
2023/07/08 00:05:28;;;;;;;;;;;19.30;1.00;;;;;;5071268;28;19924;-75
2023/07/08 00:07:54;;;;;;;;;;;19.30;1.00;;;;;;5053616;28;19931;-75
2023/07/08 00:10:21;;;;;;;;;;;19.30;1.00;;;;;;5071363;28;20397;-75
2023/07/08 00:12:48;;;;;;;;;;;19.30;1.00;;;;;;5065654;28;19925;-76
2023/07/08 00:15:15;;;;;;;;;;;19.30;1.00;;;;;;5063924;28;19947;-75
2023/07/08 00:17:41;;;;;;;;;;;19.30;1.00;;;;;;5072597;28;20569;-76
2023/07/08 00:20:16;;;;;;;;;;;19.30;1.00;;;;;;5074902;28;19930;-75
2023/07/08 00:22:41;;;;;;;;;;;19.30;1.00;;;;;;5074307;28;20281;-75
2023/07/08 00:25:07;;;;;;;;;;;19.20;1.00;;;;;;5074885;28;19936;-76
2023/07/08 00:27:33;;;;;;;;;;;19.20;1.00;;;;;;5053542;28;20360;-76
2023/07/08 00:30:00;;;;;;;;;;;19.20;1.00;;;;;;5058199;28;19966;-76
2023/07/08 00:32:26;;;;;;;;;;;19.20;1.00;;;;;;5074566;28;19928;-75
2023/07/08 00:34:51;;;;;;;;;;;19.20;1.00;;;;;;5073760;28;20294;-76
2023/07/08 00:37:17;;;;;;;;;;;19.10;1.00;;;;;;5092989;28;20604;-75
2023/07/08 00:39:42;;;;;;;;;;;19.10;1.00;;;;;;5068565;28;20434;-76
2023/07/08 00:42:14;;;;;;;;;;;19.10;1.00;;;;;;5073994;28;20504;-76
2023/07/08 00:44:40;;;;;;;;;;;19.00;1.00;;;;;;5058218;28;20015;-75
2023/07/08 00:47:09;;;;;;;;;;;19.00;1.00;;;;;;5074298;28;20321;-75
2023/07/08 00:49:40;;;;;;;;;;;19.00;1.00;;;;;;5074214;28;19928;-75
2023/07/08 00:52:20;;;;;;;;;;;19.00;1.00;;;;;;5067002;28;20744;-75
2023/07/08 00:54:48;;;;;;;;;;;19.00;1.40;;;;;;5069584;28;19925;-75
2023/07/08 00:57:14;;;;;;;;;;;19.00;1.20;;;;;;5066814;28;19931;-76
2023/07/08 00:59:43;;;;;;;;;;;19.00;16.50;;;;;;5074155;28;19924;-76
2023/07/08 01:02:10;;;;;;;;;;;19.00;14.60;;;;;;5068080;28;19935;-76
2023/07/08 01:04:59;;;;;;;;;;;19.00;18.00;;;;;;5074212;28;19958;-75
2023/07/08 01:07:25;;;;;;;;;;;19.00;10.30;;;;;;5060534;28;19928;-75
2023/07/08 01:09:55;;;;;;;;;;;19.00;1.00;;;;;;5074001;28;19924;-76
2023/07/08 01:12:23;;;;;;;;;;;19.00;4.60;;;;;;5060287;28;19931;-75
2023/07/08 01:14:48;;;;;;;;;;;19.00;36.40;;;;;;5073895;28;19928;-75
2023/07/08 01:17:14;;;;;;;;;;;19.00;50.50;;;;;;5092069;28;19924;-76
2023/07/08 01:19:43;;;;;;;;;;;19.00;44.30;;;;;;5070260;28;19924;-75
2023/07/08 01:22:09;;;;;;;;;;;19.00;91.60;;;;;;5088306;28;20348;-76
2023/07/08 01:24:37;;;;;;;;;;;18.90;94.90;;;;;;5073337;28;19924;-76
2023/07/08 01:27:04;;;;;;;;;;;18.90;99.90;;;;;;5073308;28;19924;-76
2023/07/08 01:29:29;;;;;;;;;;;18.90;99.90;;;;;;5072805;28;20014;-76
2023/07/08 01:31:56;;;;;;;;;;;18.90;99.90;;;;;;5071713;28;20359;-76
2023/07/08 01:34:22;;;;;;;;;;;18.90;99.90;;;;;;5063421;28;19928;-76
2023/07/08 01:36:49;;;;;;;;;;;18.90;99.90;;;;;;5069352;28;20287;-75
2023/07/08 01:39:17;;;;;;;;;;;18.80;99.90;;;;;;5065530;28;19976;-75
2023/07/08 01:41:43;;;;;;;;;;;18.80;99.90;;;;;;5065106;28;19932;-75
2023/07/08 01:44:29;;;;;;;;;;;18.80;99.90;;;;;;5071415;28;19977;-75
2023/07/08 01:46:57;;;;;;;;;;;18.80;1.00;;;;;;5080274;28;19946;-76
2023/07/08 01:49:22;;;;;;;;;;;18.80;1.00;;;;;;5072775;28;19968;-75
2023/07/08 01:51:48;;;;;;;;;;;18.80;1.00;;;;;;5066613;28;19960;-75
2023/07/08 01:54:14;;;;;;;;;;;18.80;1.00;;;;;;5083734;28;19931;-75
2023/07/08 01:56:39;;;;;;;;;;;18.80;1.00;;;;;;5051806;28;19928;-75
2023/07/08 01:59:05;;;;;;;;;;;18.80;64.30;;;;;;5065796;28;19924;-75
2023/07/08 02:01:30;;;;;;;;;;;18.80;99.90;;;;;;5071330;28;19928;-75
2023/07/08 02:03:56;;;;;;;;;;;18.70;99.90;;;;;;5073008;28;19928;-75
2023/07/08 02:06:21;;;;;;;;;;;18.70;99.90;;;;;;5071410;28;19924;-75
2023/07/08 02:08:47;;;;;;;;;;;18.60;1.00;;;;;;5066102;28;19977;-75
2023/07/08 02:11:12;;;;;;;;;;;18.60;1.00;;;;;;5062850;28;19931;-75
2023/07/08 02:13:38;;;;;;;;;;;18.60;99.90;;;;;;5053976;28;19978;-74
2023/07/08 02:16:06;;;;;;;;;;;18.50;99.90;;;;;;5045981;28;19925;-75
2023/07/08 02:18:32;;;;;;;;;;;18.50;99.90;;;;;;5054262;28;19931;-75
2023/07/08 02:20:57;;;;;;;;;;;18.50;99.90;;;;;;5062405;28;19931;-75
2023/07/08 02:23:24;;;;;;;;;;;18.50;99.90;;;;;;5051982;28;19928;-75
2023/07/08 02:25:53;;;;;;;;;;;18.40;99.90;;;;;;5062614;28;19929;-75
2023/07/08 02:28:19;;;;;;;;;;;18.40;99.90;;;;;;5069546;28;19971;-75
2023/07/08 02:30:46;;;;;;;;;;;18.40;99.90;;;;;;5071548;28;19971;-75
2023/07/08 02:33:12;;;;;;;;;;;18.40;99.90;;;;;;5059636;28;19970;-75
2023/07/08 02:35:38;;;;;;;;;;;18.40;99.90;;;;;;5072141;28;20468;-75
2023/07/08 02:38:04;;;;;;;;;;;18.40;99.90;;;;;;5072105;28;19950;-75
2023/07/08 02:40:29;;;;;;;;;;;18.40;99.90;;;;;;5054940;28;19927;-75
2023/07/08 02:42:55;;;;;;;;;;;18.40;99.90;;;;;;5058774;28;20275;-75
2023/07/08 02:45:20;;;;;;;;;;;18.30;99.90;;;;;;5072229;28;19928;-75
2023/07/08 02:47:46;;;;;;;;;;;18.30;99.90;;;;;;5071853;28;19975;-75
2023/07/08 02:50:12;;;;;;;;;;;18.30;99.90;;;;;;5071816;28;19931;-75
2023/07/08 02:52:37;;;;;;;;;;;18.30;99.90;;;;;;5071253;28;19924;-75
2023/07/08 02:55:03;;;;;;;;;;;18.30;99.90;;;;;;5054434;28;19973;-75
2023/07/08 02:57:28;;;;;;;;;;;18.20;99.90;;;;;;5070367;28;19924;-75
2023/07/08 02:59:54;;;;;;;;;;;18.20;99.90;;;;;;5072290;28;19982;-75
2023/07/08 03:02:21;;;;;;;;;;;18.20;1.00;;;;;;5070789;28;19924;-75
2023/07/08 03:04:46;;;;;;;;;;;18.20;66.00;;;;;;5072651;28;20294;-74
2023/07/08 03:07:13;;;;;;;;;;;18.20;99.90;;;;;;5071645;28;19924;-75
2023/07/08 03:09:39;;;;;;;;;;;18.20;99.90;;;;;;5071075;28;19928;-75
2023/07/08 03:12:09;;;;;;;;;;;18.20;1.00;;;;;;5071745;28;19925;-75
2023/07/08 03:14:34;;;;;;;;;;;18.10;99.90;;;;;;5071741;28;20041;-75
2023/07/08 03:17:00;;;;;;;;;;;18.10;99.90;;;;;;5059047;28;20015;-75
2023/07/08 03:19:25;;;;;;;;;;;18.10;99.90;;;;;;5063406;28;19931;-75
2023/07/08 03:21:51;;;;;;;;;;;18.10;99.90;;;;;;5054980;28;19924;-75
2023/07/08 03:24:18;;;;;;;;;;;18.10;99.90;;;;;;5070954;28;19924;-75
2023/07/08 03:26:44;;;;;;;;;;;18.00;1.00;;;;;;5062645;28;19959;-75
2023/07/08 03:29:14;;;;;;;;;;;18.00;99.90;;;;;;5072129;28;19975;-75
2023/07/08 03:31:39;;;;;;;;;;;18.10;92.80;;;;;;5062377;28;19935;-75
2023/07/08 03:34:05;;;;;;;;;;;18.00;1.00;;;;;;5089479;28;19936;-75
2023/07/08 03:36:30;;;;;;;;;;;18.00;1.00;;;;;;5071509;28;19928;-75
2023/07/08 03:38:57;;;;;;;;;;;18.00;1.00;;;;;;5071815;28;20462;-75
2023/07/08 03:41:22;;;;;;;;;;;18.00;1.00;;;;;;5067081;28;20393;-75
2023/07/08 03:43:50;;;;;;;;;;;18.00;1.00;;;;;;5067859;28;19928;-75
2023/07/08 03:46:16;;;;;;;;;;;18.00;99.90;;;;;;5089193;28;19989;-75
2023/07/08 03:48:41;;;;;;;;;;;18.00;99.90;;;;;;5071463;28;19928;-75
2023/07/08 03:51:14;;;;;;;;;;;18.00;99.90;;;;;;5071724;28;19929;-75
2023/07/08 03:53:40;;;;;;;;;;;18.10;99.90;;;;;;5075215;28;20015;-75
2023/07/08 03:56:07;;;;;;;;;;;18.10;99.90;;;;;;5075426;28;20453;-75
2023/07/08 03:58:33;;;;;;;;;;;18.10;99.90;;;;;;5075577;28;19928;-75
2023/07/08 04:00:58;;;;;;;;;;;18.10;99.90;;;;;;5075364;28;19946;-75
2023/07/08 04:03:24;;;;;;;;;;;18.10;60.70;;;;;;5075240;28;19928;-75
2023/07/08 04:05:49;;;;;;;;;;;18.20;1.00;;;;;;5092002;28;19924;-75
2023/07/08 04:08:15;;;;;;;;;;;18.20;1.00;;;;;;5075186;28;20447;-75
2023/07/08 04:10:40;;;;;;;;;;;18.20;99.90;;;;;;5075069;28;19956;-75
2023/07/08 04:13:06;;;;;;;;;;;18.20;99.90;;;;;;5073638;28;19981;-75
2023/07/08 04:15:31;;;;;;;;;;;18.20;99.90;;;;;;5075237;28;20006;-75
2023/07/08 04:17:57;;;;;;;;;;;18.30;99.90;;;;;;5074390;28;20382;-75
2023/07/08 04:20:22;;;;;;;;;;;18.30;99.90;;;;;;5092965;28;20621;-75
2023/07/08 04:22:48;;;;;;;;;;;18.30;99.90;;;;;;5075710;28;20290;-75
2023/07/08 04:25:14;;;;;;;;;;;18.30;99.90;;;;;;5074696;28;20757;-75
2023/07/08 04:27:40;;;;;;;;;;;18.30;71.50;;;;;;5074598;28;19931;-75
2023/07/08 04:30:06;;;;;;;;;;;18.30;45.10;;;;;;5092921;28;19924;-75
2023/07/08 04:32:31;;;;;;;;;;;18.40;7.70;;;;;;5058158;28;19935;-75
2023/07/08 04:34:57;;;;;;;;;;;18.40;1.00;;;;;;5074189;28;19924;-75
2023/07/08 04:37:22;;;;;;;;;;;18.40;1.00;;;;;;5062657;28;20011;-75
2023/07/08 04:39:48;;;;;;;;;;;18.40;1.00;;;;;;5073794;28;20301;-75
2023/07/08 04:42:15;;;;;;;;;;;18.40;1.00;;;;;;5073228;28;19931;-75
2023/07/08 04:44:41;;;;;;;;;;;18.40;99.90;;;;;;5072381;28;19967;-75
2023/07/08 04:47:08;;;;;;;;;;;18.50;99.90;;;;;;5092476;28;19924;-75
2023/07/08 04:49:34;;;;;;;;;;;18.50;99.90;;;;;;5074345;28;19924;-75
2023/07/08 04:52:01;;;;;;;;;;;18.50;99.90;;;;;;5074370;28;19975;-75
2023/07/08 04:54:27;;;;;;;;;;;18.50;99.90;;;;;;5073703;28;19924;-75
2023/07/08 04:56:53;;;;;;;;;;;18.60;99.90;;;;;;5092320;28;19924;-75
2023/07/08 04:59:21;;;;;;;;;;;18.60;99.90;;;;;;5074339;28;19924;-76
2023/07/08 05:01:47;;;;;;;;;;;18.60;99.90;;;;;;5062527;28;19935;-75
2023/07/08 05:04:13;;;;;;;;;;;18.60;99.90;;;;;;5060999;28;19924;-75
2023/07/08 05:06:39;;;;;;;;;;;18.60;99.90;;;;;;5073935;28;19924;-75
2023/07/08 05:09:04;;;;;;;;;;;18.70;99.90;;;;;;5057527;28;19924;-75
2023/07/08 05:11:30;;;;;;;;;;;18.70;99.90;;;;;;5057850;28;19969;-75
2023/07/08 05:13:56;;;;;;;;;;;18.70;99.90;;;;;;5073697;28;19932;-75
2023/07/08 05:16:21;;;;;;;;;;;18.70;99.90;;;;;;5060877;28;19931;-75
2023/07/08 05:18:47;;;;;;;;;;;18.70;99.90;;;;;;5090654;28;19924;-75
2023/07/08 05:21:12;;;;;;;;;;;18.70;99.90;;;;;;5073968;28;19928;-75
2023/07/08 05:23:38;;;;;;;;;;;18.80;99.90;;;;;;5073531;28;19924;-76
2023/07/08 05:26:04;;;;;;;;;;;18.80;99.90;;;;;;5062288;28;19970;-75
2023/07/08 05:28:30;;;;;;;;;;;18.80;99.90;;;;;;5071757;28;19935;-75
2023/07/08 05:30:56;;;;;;;;;;;18.80;99.90;;;;;;5073469;28;19928;-76
2023/07/08 05:33:25;;;;;;;;;;;18.90;99.90;;;;;;5073146;28;19947;-75
2023/07/08 05:35:51;;;;;;;;;;;18.90;99.90;;;;;;5061964;28;19925;-75
2023/07/08 05:38:16;;;;;;;;;;;18.90;1.00;;;;;;5087712;28;20421;-75
2023/07/08 05:40:42;;;;;;;;;;;19.00;99.90;;;;;;5089558;28;19928;-75
2023/07/08 05:43:08;;;;;;;;;;;19.00;99.90;;;;;;5083144;28;19951;-74
2023/07/08 05:45:35;;;;;;;;;;;19.00;99.90;;;;;;5083921;28;19924;-75
2023/07/08 05:48:01;;;;;;;;;;;19.00;99.90;;;;;;5067192;28;20007;-75
2023/07/08 05:50:26;;;;;;;;;;;19.00;99.90;;;;;;5065541;28;20050;-75
2023/07/08 05:52:52;;;;;;;;;;;19.10;99.90;;;;;;5071781;28;19932;-75
2023/07/08 05:55:17;;;;;;;;;;;19.10;99.90;;;;;;5090413;28;20448;-76
2023/07/08 05:57:43;;;;;;;;;;;19.10;99.90;;;;;;5090148;28;20029;-75
2023/07/08 06:00:09;;;;;;;;;;;19.20;1.00;;;;;;5090186;28;19932;-75
2023/07/08 06:02:34;;;;;;;;;;;19.20;99.90;;;;;;5069112;28;20296;-75
2023/07/08 06:05:00;;;;;;;;;;;19.30;99.90;;;;;;5072293;28;20391;-75
2023/07/08 06:07:25;;;;;;;;;;;19.30;1.00;;;;;;5069703;28;19931;-75
2023/07/08 06:09:51;;;;;;;;;;;19.30;1.00;;;;;;5089995;28;20011;-75
2023/07/08 06:12:17;;;;;;;;;;;19.40;1.00;;;;;;5085817;28;19925;-75
2023/07/08 06:14:42;;;;;;;;;;;19.40;99.90;;;;;;5082301;28;20309;-75
2023/07/08 06:17:08;;;;;;;;;;;19.50;99.90;;;;;;5070869;28;19928;-74
2023/07/08 06:19:34;;;;;;;;;;;19.50;99.90;;;;;;5090194;28;19928;-75
2023/07/08 06:21:59;;;;;;;;;;;19.60;99.90;;;;;;5043075;28;19967;-75
2023/07/08 06:24:25;;;;;;;;;;;19.60;99.90;;;;;;5071665;28;20565;-75
2023/07/08 06:26:50;;;;;;;;;;;19.60;99.90;;;;;;5089376;28;20008;-76
2023/07/08 06:29:16;;;;;;;;;;;19.70;99.90;;;;;;5061044;28;19978;-75
2023/07/08 06:31:41;;;;;;;;;;;19.70;99.90;;;;;;5070837;28;20600;-75
2023/07/08 06:34:07;;;;;;;;;;;19.80;99.90;;;;;;5071270;28;19928;-75
2023/07/08 06:36:32;;;;;;;;;;;19.90;45.10;;;;;;5058957;28;19935;-75
2023/07/08 06:38:58;;;;;;;;;;;19.90;1.00;;;;;;5089383;28;19928;-75
2023/07/08 06:41:23;;;;;;;;;;;20.00;1.00;;;;;;5085463;28;20003;-75
2023/07/08 06:43:49;;;;;;;;;;;20.10;1.00;;;;;;5082372;28;20577;-75
2023/07/08 06:46:15;;;;;;;;;;;20.20;1.00;;;;;;5065053;28;20019;-75
2023/07/08 06:48:40;;;;;;;;;;;20.30;99.90;;;;;;5081603;28;19924;-75
2023/07/08 06:51:06;;;;;;;;;;;20.30;99.90;;;;;;5089147;28;19924;-75
2023/07/08 06:53:32;;;;;;;;;;;20.40;99.90;;;;;;5089252;28;19977;-75
2023/07/08 06:55:57;;;;;;;;;;;20.60;99.90;;;;;;5088565;28;19928;-76
2023/07/08 06:58:23;;;;;;;;;;;20.60;99.90;;;;;;5071654;28;20290;-75
2023/07/08 07:00:48;;;;;;;;;;;20.70;99.90;;;;;;5087643;28;19928;-75
2023/07/08 07:03:14;;;;;;;;;;;20.80;99.90;;;;;;5072427;28;19924;-75
2023/07/08 07:05:40;;;;;;;;;;;20.90;99.90;;;;;;5077013;28;19924;-76
2023/07/08 07:08:07;;;;;;;;;;;21.00;99.90;;;;;;5089742;28;20311;-75
2023/07/08 07:10:33;;;;;;;;;;;21.00;99.90;;;;;;5089468;28;20007;-75
2023/07/08 07:12:59;;;;;;;;;;;21.20;97.50;;;;;;5079765;28;20027;-75
2023/07/08 07:15:24;;;;;;;;;;;21.30;29.90;;;;;;5083921;28;19932;-76
2023/07/08 07:17:50;;;;;;;;;;;21.30;17.40;;;;;;5063847;28;20302;-75
2023/07/08 07:20:16;;;;;;;;;;;21.40;1.00;;;;;;5089761;28;19971;-75
2023/07/08 07:22:42;;;;;;;;;;;21.50;1.00;;;;;;5090223;28;20313;-75
2023/07/08 07:25:07;;;;;;;;;;;21.50;1.00;;;;;;5089531;28;19928;-75
2023/07/08 07:27:33;;;;;;;;;;;21.60;1.00;;;;;;5058330;28;19982;-77
2023/07/08 07:29:59;;;;;;;;;;;21.70;1.00;;;;;;5073615;28;19924;-76
2023/07/08 07:32:25;;;;;;;;;;;21.80;1.00;;;;;;5073213;28;19928;-76
2023/07/08 07:34:51;;;;;;;;;;;21.80;99.90;;;;;;5073171;28;19931;-76
2023/07/08 07:37:17;;;;;;;;;;;21.90;99.90;;;;;;5072650;28;19928;-76
2023/07/08 07:39:43;;;;;;;;;;;22.00;99.90;;;;;;5075151;28;19932;-75
2023/07/08 07:42:10;;;;;;;;;;;22.10;99.90;;;;;;5081652;28;19929;-74
2023/07/08 07:44:35;;;;;;;;;;;22.20;99.90;;;;;;5068506;28;19928;-75
2023/07/08 07:47:02;;;;;;;;;;;22.30;99.90;;;;;;5063648;28;19931;-73
2023/07/08 07:49:27;;;;;;;;;;;22.40;99.90;;;;;;5054134;28;19924;-73
2023/07/08 07:51:53;;;;;;;;;;;22.50;99.90;;;;;;5088803;28;20310;-74
2023/07/08 07:54:18;;;;;;;;;;;22.60;99.90;;;;;;5076858;28;19924;-74
2023/07/08 07:56:44;;;;;;;;;;;22.70;99.90;;;;;;5071406;28;20310;-74
2023/07/08 07:59:10;;;;;;;;;;;22.80;99.90;;;;;;5089148;28;19932;-74
2023/07/08 08:01:36;;;;;;;;;;;22.80;64.70;;;;;;5078929;28;19924;-74
2023/07/08 08:04:01;;;;;;;;;;;22.90;51.00;;;;;;5087092;28;20342;-74
2023/07/08 08:06:27;;;;;;;;;;;22.90;11.70;;;;;;5088719;28;19969;-74
2023/07/08 08:08:53;;;;;;;;;;;23.00;1.00;;;;;;5087683;28;19974;-74
2023/07/08 08:11:19;;;;;;;;;;;23.00;1.00;;;;;;5088210;28;19924;-74
2023/07/08 08:13:45;;;;;;;;;;;23.10;1.00;;;;;;5068676;28;20066;-74
2023/07/08 08:16:10;;;;;;;;;;;23.20;1.00;;;;;;5070399;28;19942;-75
2023/07/08 08:18:36;;;;;;;;;;;23.20;1.00;;;;;;5085911;28;20495;-74
2023/07/08 08:21:02;;;;;;;;;;;23.20;1.00;;;;;;5088259;28;19931;-74
2023/07/08 08:23:27;;;;;;;;;;;23.30;1.00;;;;;;5070369;28;20282;-74
2023/07/08 08:25:53;;;;;;;;;;;23.30;1.00;;;;;;5088551;28;19953;-74
2023/07/08 08:28:18;;;;;;;;;;;23.40;1.00;;;;;;5087628;28;19931;-74
2023/07/08 08:30:48;;;;;;;;;;;23.50;1.00;;;;;;5069841;28;19924;-74
2023/07/08 08:33:13;;;;;;;;;;;23.50;1.00;;;;;;5069368;28;19924;-74
2023/07/08 08:35:39;;;;;;;;;;;23.60;1.00;;;;;;5070649;28;20536;-74
2023/07/08 08:38:04;;;;;;;;;;;23.70;1.00;;;;;;5069684;28;19931;-74
2023/07/08 08:40:31;;;;;;;;;;;23.70;1.00;;;;;;5073015;28;19931;-74
2023/07/08 08:42:59;;;;;;;;;;;23.80;1.00;;;;;;5079604;28;19928;-74
2023/07/08 08:45:26;;;;;;;;;;;23.90;1.00;;;;;;5073955;28;20002;-75
2023/07/08 08:47:56;;;;;;;;;;;24.00;1.00;;;;;;5089280;28;19931;-74
2023/07/08 08:50:51;;;;;;;;;;;24.00;1.00;;;;;;5055043;28;19924;-74
2023/07/08 08:53:17;;;;;;;;;;;24.10;1.00;;;;;;5027712;28;20480;-74
2023/07/08 08:55:44;;;;;;;;;;;24.20;1.00;;;;;;5074043;28;19927;-74
2023/07/08 08:58:29;;;;;;;;;;;24.20;1.00;;;;;;5067953;28;19924;-74
2023/07/08 09:00:57;;;;;;;;;;;24.30;1.00;;;;;;5072538;28;20390;-74
2023/07/08 09:03:26;;;;;;;;;;;24.40;1.00;;;;;;5092343;28;19924;-75
2023/07/08 09:05:51;;;;;;;;;;;24.40;1.00;;;;;;5090301;28;20453;-74
2023/07/08 09:08:31;;;;;;;;;;;24.60;1.00;;;;;;5073910;28;19974;-74
2023/07/08 09:11:09;;;;;;;;;;;24.70;1.00;;;;;;5072756;28;19985;-74
2023/07/08 09:13:36;;;;;;;;;;;24.80;1.00;;;;;;5046221;28;19932;-74
2023/07/08 09:16:17;;;;;;;;;;;24.90;1.00;;;;;;5056850;28;19925;-74
2023/07/08 09:18:58;;;;;;;;;;;25.00;1.00;;;;;;5072555;28;20295;-74
2023/07/08 09:21:29;;;;;;;;;;;25.10;1.00;;;;;;5073924;28;19931;-74
2023/07/08 09:24:00;;;;;;;;;;;25.20;1.00;;;;;;5062994;28;19930;-75
2023/07/08 09:26:26;;;;;;;;;;;25.20;1.00;;;;;;5073149;28;19928;-74
2023/07/08 09:28:52;;;;;;;;;;;25.30;1.00;;;;;;5073390;28;19952;-74
2023/07/08 09:31:25;;;;;;;;;;;25.40;1.00;;;;;;5056743;28;20372;-74
2023/07/08 09:33:52;;;;;;;;;;;25.60;1.00;;;;;;5069528;28;20011;-74
2023/07/08 09:36:19;;;;;;;;;;;25.70;1.00;;;;;;5059304;28;19924;-74
2023/07/08 09:38:48;;;;;;;;;;;26.00;1.00;;;;;;5073549;28;19924;-75
2023/07/08 09:41:16;;;;;;;;;;;26.30;1.00;;;;;;5056528;28;19924;-75
2023/07/08 09:43:42;;;;;;;;;;;26.60;1.00;;;;;;5071943;28;19928;-74
2023/07/08 09:46:11;;;;;;;;;;;27.00;99.90;;;;;;5072622;28;20279;-74
2023/07/08 09:48:37;;;;;;;;;;;27.30;99.90;;;;;;5073427;28;19924;-75
2023/07/08 09:51:02;;;;;;;;;;;27.50;99.90;;;;;;5072091;28;19931;-75
2023/07/08 09:53:28;;;;;;;;;;;27.80;99.90;;;;;;5091270;28;20314;-75
2023/07/08 09:55:56;;;;;;;;;;;27.90;99.90;;;;;;5072558;28;19928;-75
2023/07/08 09:58:27;;;;;;;;;;;28.00;99.90;;;;;;5073199;28;19924;-75
2023/07/08 10:00:58;;;;;;;;;;;28.20;99.90;;;;;;5073179;28;20378;-75
2023/07/08 10:03:28;;;;;;;3.70;2.40;;;28.40;99.90;;;;;;5069714;28;20386;-75
2023/07/08 10:06:00;;;;;;;5.20;2.00;;;28.60;99.90;;;;;;5088303;28;20402;-75
2023/07/08 10:08:34;;;;;;;3.47;1.70;;;28.70;99.90;;;;;;5069290;28;20457;-75
2023/07/08 10:11:28;;;;;;;4.22;1.65;;;28.90;99.90;;;;;;5060543;28;20406;-75
2023/07/08 10:13:58;;;;;;;4.83;1.80;;;29.10;99.90;;;;;;5070949;28;21279;-75
2023/07/08 10:16:26;;;;;;;;;;;29.30;99.90;;;;;;5090929;28;20339;-75
2023/07/08 10:18:52;;;;;;;;;;;29.40;99.90;;;;;;5071175;28;19920;-75
2023/07/08 10:21:20;;;;;;;;;;;29.70;99.90;;;;;;5090712;28;19998;-75
2023/07/08 10:24:04;;;;;;;;;;;29.90;81.00;;;;;;5090472;28;19928;-75
2023/07/08 10:26:31;;;;;;;;;;;29.90;78.00;;;;;;5055251;28;19924;-75
2023/07/08 10:29:22;;;;;;;4.22;1.60;;;30.10;63.40;;;;;;5072009;28;19927;-75
2023/07/08 10:31:59;;;;;;;3.15;1.80;;;30.40;48.80;;;;;;5088562;28;20442;-76
2023/07/08 10:34:38;;;;;;;3.37;1.60;;;30.50;36.70;;;;;;5070804;28;20513;-75
2023/07/08 10:37:13;;;;;;;;;;;30.70;15.00;;;;;;5061032;28;20047;-75
2023/07/08 10:39:46;;;;;;;;;;;30.80;1.00;;;;;;5058957;28;19927;-75
2023/07/08 10:42:38;;;;;;;;;;;30.90;1.00;;;;;;5044952;28;19928;-75
2023/07/08 10:45:15;;;;;;;;;;;31.00;1.00;;;;;;5048043;28;20374;-76
2023/07/08 10:47:40;;;;;;;;;;;31.10;1.00;;;;;;5071831;28;19920;-76
2023/07/08 10:50:15;;;;;;;;;;;31.30;1.00;;;;;;5089720;28;20385;-75
2023/07/08 10:53:19;;;;;;;;;;;31.30;1.00;;;;;;5071529;28;20003;-75
2023/07/08 10:56:03;;;;;;;;;;;31.40;1.00;;;;;;4971297;28;20420;-75
2023/07/08 10:58:44;;;;;;;;;;;31.60;1.00;;;;;;4971819;28;19928;-76
2023/07/08 11:01:13;;;;;;;;;;;31.80;1.00;;;;;;5036176;28;19924;-75
2023/07/08 11:03:45;;;;;;;3.15;1.25;;;31.90;1.00;;;;;;5059255;28;20042;-75
2023/07/08 11:06:15;;;;;;;4.13;1.50;;;32.10;1.00;;;;;;5070224;28;20512;-75
2023/07/08 11:08:56;;;;;;;2.78;1.42;;;32.10;1.00;;;;;;5070004;28;20410;-76
2023/07/08 11:11:45;;;;;;;3.17;1.50;;;32.10;1.00;;;;;;5088333;28;20398;-76
2023/07/08 11:14:39;;;;;;;2.63;1.40;;;32.20;1.00;;;;;;5087590;28;20402;-75
2023/07/08 11:17:18;;;;;;;3.50;1.67;;;32.30;1.00;;;;;;5087669;28;20563;-75
2023/07/08 11:19:52;;;;;;;3.08;1.70;;;32.20;1.00;;;;;;5069679;28;20413;-75
2023/07/08 11:22:21;;;;;;;3.63;1.50;;;32.30;1.00;;;;;;5087606;28;20489;-75
2023/07/08 11:24:50;;;;;;;3.30;1.70;;;32.50;1.00;;;;;;5069098;28;20439;-75
2023/07/08 11:27:29;;;;;;;4.28;1.70;;;32.70;1.00;;;;;;5076924;28;20801;-75
2023/07/08 11:30:29;;;;;;;3.83;1.67;;;32.80;1.00;;;;;;5087290;28;20438;-75
2023/07/08 11:33:02;;;;;;;2.90;1.60;;;32.80;1.00;;;;;;5026049;28;20451;-76
2023/07/08 11:35:39;;;;;;;5.15;1.40;;;32.90;1.00;;;;;;5069065;28;20444;-75
2023/07/08 11:38:05;;;;;;;;;;;33.10;1.00;;;;;;5088831;28;20140;-75
2023/07/08 11:40:37;;;;;;;;;;;33.20;1.00;;;;;;5089423;28;19920;-75
2023/07/08 11:43:05;;;;;;;;;;;33.30;1.00;;;;;;5069187;28;19920;-75
2023/07/08 11:45:38;;;;;;;;;;;33.40;1.00;;;;;;5070602;28;19920;-75
2023/07/08 11:48:05;;;;;;;;;;;33.60;1.00;;;;;;5088200;28;19920;-75
2023/07/08 11:50:32;;;;;;;;;;;33.70;1.00;;;;;;5089402;28;19920;-75
2023/07/08 11:52:58;;;;;;;;;;;33.80;1.00;;;;;;5071153;28;19920;-76
2023/07/08 11:55:34;;;;;;;;;;;33.90;1.00;;;;;;5071653;28;20066;-76
2023/07/08 11:58:00;;;;;;;;;;;33.90;1.00;;;;;;5059283;28;19920;-75
2023/07/08 12:00:32;;;;;;;;;;;34.00;1.00;;;;;;5069976;28;20408;-76
2023/07/08 12:02:58;;;;;;;;;;;34.10;1.00;;;;;;5071933;28;19920;-75
2023/07/08 12:05:38;;;;;;;;;;;34.30;99.90;;;;;;5088829;28;19928;-75
2023/07/08 12:08:12;;;;;;;;;;;34.30;99.90;;;;;;5071482;28;19920;-76
2023/07/08 12:10:39;;;;;;;;;;;34.40;99.90;;;;;;5070139;28;19927;-76
2023/07/08 12:13:13;;;;;;;;;;;34.50;99.90;;;;;;5072122;28;19920;-75
2023/07/08 12:15:38;;;;;;;;;;;34.50;99.90;;;;;;5093165;28;20605;-76
2023/07/08 12:18:10;;;;;;;;;;;34.60;99.90;;;;;;5093396;28;19927;-76
2023/07/08 12:20:38;;;;;;;4.32;1.92;;;34.60;99.90;;;;;;5091524;28;19920;-75
2023/07/08 12:23:20;;;;;;;3.92;2.00;;;34.60;99.90;;;;;;5044386;28;21063;-76
2023/07/08 12:25:46;;;;;;;3.80;1.88;;;34.70;99.90;;;;;;5061722;28;20550;-75
2023/07/08 12:28:13;;;;;;;4.28;2.22;;;34.80;99.90;;;;;;5072134;28;20392;-76
2023/07/08 12:30:40;;;;;;;3.50;1.83;;;35.00;99.90;;;;;;5073220;28;20467;-76
2023/07/08 12:33:28;;;;;;;4.20;2.10;;;35.20;99.90;;;;;;5090154;28;20927;-76
2023/07/08 12:35:55;;;;;;;3.97;1.95;;;35.20;99.90;;;;;;5073277;28;20398;-76
2023/07/08 12:38:35;;;;;;;3.60;2.08;;;35.20;99.90;;;;;;5058947;28;20433;-76
2023/07/08 12:41:03;;;;;;;;;;;35.30;99.90;;;;;;5091529;28;20502;-76
2023/07/08 12:43:29;;;;;;;;;;;35.20;99.90;;;;;;5091378;28;19927;-75
2023/07/08 12:45:54;;;;;;;;;;;35.30;99.90;;;;;;5092774;28;19920;-76
2023/07/08 12:48:20;;;;;;;;;;;35.30;99.90;;;;;;5074353;28;19920;-76
2023/07/08 12:50:45;;;;;;;;;;;35.30;99.90;;;;;;5091918;28;21128;-76
2023/07/08 12:53:12;;;;;;;;;;;35.30;99.90;;;;;;5092896;28;19920;-76
2023/07/08 12:55:40;;;;;;;3.65;1.77;;;35.40;99.90;;;;;;5078863;28;19921;-76
2023/07/08 12:58:28;;;;;;;4.95;2.15;;;35.40;99.90;;;;;;5090865;28;20430;-76
2023/07/08 13:00:56;;;;;;;6.00;2.27;;;35.50;99.90;;;;;;5089232;28;20486;-76
2023/07/08 13:03:29;;;;;;;3.47;2.10;;;35.40;99.90;;;;;;5072512;28;20439;-76
2023/07/08 13:05:56;;;;;;;4.27;2.30;;;35.50;99.90;;;;;;5090165;28;20794;-76
2023/07/08 13:08:25;;;;;;;3.70;2.30;;;35.60;99.90;;;;;;5072641;28;20904;-76
2023/07/08 13:10:55;;;;;;;3.42;1.95;;;35.70;99.90;;;;;;5089113;28;20399;-76
2023/07/08 13:13:24;;;;;;;4.28;2.28;;;35.90;99.90;;;;;;5090101;28;20919;-75
2023/07/08 13:15:51;;;;;;;4.03;2.30;;;36.00;99.90;;;;;;5090509;28;20405;-76
2023/07/08 13:18:20;;;;;;;4.28;2.38;;;36.20;99.90;;;;;;5090266;28;20462;-76
2023/07/08 13:20:52;;;;;;;4.85;2.20;;;36.30;99.90;;;;;;5090318;28;20401;-76
2023/07/08 13:23:19;;;;;;;3.87;1.80;;;36.40;99.90;;;;;;5072096;28;20402;-76
2023/07/08 13:25:49;;;;;;;4.60;2.33;;;36.40;99.90;;;;;;5090230;28;20405;-76
2023/07/08 13:28:22;;;;;;;3.50;2.25;;;36.50;99.90;;;;;;5071587;28;20470;-76
2023/07/08 13:30:52;;;;;;;;;;;36.40;99.90;;;;;;5092131;28;20044;-75
2023/07/08 13:33:18;;;;;;;4.60;2.40;;;36.50;99.90;;;;;;5069501;28;20011;-76
2023/07/08 13:35:45;;;;;;;4.63;2.30;;;36.50;99.90;;;;;;5064049;28;20402;-76
2023/07/08 13:38:35;;;;;;;3.13;2.05;;;36.60;99.90;;;;;;5060044;28;20040;-76
2023/07/08 13:41:04;;;;;;;3.25;1.98;;;36.60;99.90;;;;;;5060649;28;20081;-75
2023/07/08 13:43:33;;;;;;;5.88;2.15;;;36.80;99.90;;;;;;5069790;28;20402;-76
2023/07/08 13:45:59;;;;;;;3.07;2.10;;;36.80;99.90;;;;;;5089504;28;20443;-76
2023/07/08 13:48:38;;;;;;;4.25;2.40;;;36.70;99.90;;;;;;5071768;28;20414;-76
2023/07/08 13:51:08;;;;;;;3.65;2.17;;;36.70;99.90;;;;;;5084110;28;20411;-76
2023/07/08 13:53:43;;;;;;;3.83;2.35;;;36.80;99.90;;;;;;5059783;28;20786;-73
2023/07/08 13:56:28;;;;;;;3.95;2.22;;;37.00;99.90;;;;;;5081320;28;20401;-75
2023/07/08 13:59:04;;;;;;;4.55;2.47;;;37.10;99.90;;;;;;5056186;28;20944;-74
2023/07/08 14:01:31;;;;;;;3.70;2.20;;;37.20;99.90;;;;;;5070214;28;21020;-75
2023/07/08 14:03:57;;;;;;;3.63;2.07;;;37.40;99.90;;;;;;5051012;28;20790;-75
2023/07/08 14:06:32;;;;;;;3.08;2.25;;;37.60;99.90;;;;;;5068243;28;20497;-75
2023/07/08 14:09:10;;;;;;;3.45;2.20;;;37.90;99.90;;;;;;5050952;28;20437;-75
2023/07/08 14:11:36;;;;;;;4.07;2.20;;;38.00;99.90;;;;;;5063118;28;20783;-75